Arcadia, CA

11:33 PM PST on February 08, 2016 (GMT -0800)
Route 666 Monrovia | | Change Station
CLOSE
Current Station
Personal Weather Station
Location: Monrovia, CA
Elevation: 462 ft
Nearby Weather Stations

Elev 462 ft 34.14 °N, 118.01 °W | Updated 1 second ago

Clear
Clear
60.0 °F
Feels Like 60.0 °F
N
2.0
Wind Variable Wind from North
Gusts 2.0 mph

Today
High -- | Low -- °F
--% Chance of Precip.
Yesterday
High -- | Low -- °F
Precip. -- in
Pressure 30.12 in
Visibility 10.0 miles
Clouds Clear
Dew Point 35 °F
Humidity 39%
Rainfall 0.00 in
Snow Depth Not available.
6:44 AM 5:28 PM
New Moon, 1% visible
METAR KCQT 090647Z AUTO 10003KT 10SM CLR 18/02 A3013 RMK AO2 SLP199 T01830017
Pressure 30.12 in
Visibility 10.0 miles
Clouds Clear
Dew Point 35 °F
Humidity 39%
Rainfall 0.00 in
Snow Depth Not available.
6:44 AM 5:28 PM
New Moon, 1% visible
METAR KCQT 090647Z AUTO 10003KT 10SM CLR 18/02 A3013 RMK AO2 SLP199 T01830017

10-Day Weather Forecast

Almanac

Astronomy

Feb. 08, 2016 Rise Set
Actual Time
Civil Twilight
Nautical Twilight
Astronomical Twilight
Moon
Length of Visible Light
Length of Day
Tomorrow will be .
, % of the Moon is Illuminated

Today's Extremes

State Highs State Lows

Community

WunderPhotos

Upload Photos

1,891,571 photos uploaded!

WunderBlog® & News

Nearby

Air Quality

  Air Quality AQ Index Pollutant
Not available.

Snow Depth

Station Depth Elevation

Earthquake Activity

City Distance Mag. Time & Date
Minimum magnitude displayed is 2.5.

Coastal Water Temperatures

Place Temperature

Stations

Nearby Weather Stations

Station Location Temp. Windchill Dew Point Humidity Wind Precip. Elev Updated Type
                   

Watches & Warnings

There are currently no watches in effect.